Terminal Aerodrome Forecast
Issued by NWS

Home | Current Version | Previous Version | Text Only | Print | Product List | Glossary On
Versions: 1 2 3 4 5 6 7 8 9 10 11 12 13 14
569
FTUS44 KMAF 271125
TAFFST
TAF
KFST 271125Z 2712/2812 23010KT P6SM SCT100
     FM271800 25015G22KT P6SM FEW250
     FM280000 20010KT P6SM SCT150=

USA.gov is the U.S. government's official web portal to all federal, state and local government web resources and services.